Time;durP1;ratioP1;P1;durP2;ratioP2;P2;SDS_P1;SDS_P2;PMS_P1;PMS_P2;Temp;Humidity;BMP_temperature;BMP_pressure;BME280_temperature;BME280_humidity;BME280_pressure;Samples;Min_cycle;Max_cycle;Signal;HPM_P1;HPM_P2
2022/02/15 00:00:38;;;;;;;4.47;1.42;;;5.50;99.90;;;;;;5066257;28;20549;-63
2022/02/15 00:03:08;;;;;;;4.95;1.48;;;5.50;99.90;;;;;;5067082;28;20052;-63
2022/02/15 00:05:35;;;;;;;9.50;1.25;;;5.50;99.90;;;;;;5068072;28;20135;-63
2022/02/15 00:08:02;;;;;;;7.82;1.05;;;5.40;99.90;;;;;;5064700;28;20393;-62
2022/02/15 00:10:28;;;;;;;2.63;1.00;;;5.40;99.90;;;;;;5067735;28;20094;-64
2022/02/15 00:12:55;;;;;;;4.78;0.77;;;5.40;99.90;;;;;;5067792;28;20193;-63
2022/02/15 00:15:22;;;;;;;4.63;1.33;;;5.30;99.90;;;;;;5069717;28;20094;-64
2022/02/15 00:17:49;;;;;;;5.57;1.92;;;5.30;99.90;;;;;;5070762;28;20131;-65
2022/02/15 00:20:16;;;;;;;4.78;1.33;;;5.30;99.90;;;;;;5070021;28;20486;-63
2022/02/15 00:22:43;;;;;;;6.78;2.30;;;5.30;99.90;;;;;;5068863;28;20091;-64
2022/02/15 00:25:09;;;;;;;10.50;1.25;;;5.20;99.90;;;;;;5064959;28;20106;-64
2022/02/15 00:27:36;;;;;;;7.63;1.58;;;5.20;99.90;;;;;;5068284;28;20106;-63
2022/02/15 00:30:04;;;;;;;5.82;1.48;;;5.20;99.90;;;;;;5067384;28;20317;-63
2022/02/15 00:32:31;;;;;;;4.65;1.30;;;5.20;99.90;;;;;;5067614;28;20144;-63
2022/02/15 00:34:57;;;;;;;7.32;2.05;;;5.20;99.90;;;;;;5067706;28;20311;-63
2022/02/15 00:37:24;;;;;;;12.80;2.80;;;5.10;99.90;;;;;;5050167;28;20045;-66
2022/02/15 00:39:51;;;;;;;9.15;1.55;;;5.10;99.90;;;;;;5068758;28;20554;-63
2022/02/15 00:42:18;;;;;;;7.13;1.35;;;5.10;99.90;;;;;;5067738;28;20085;-63
2022/02/15 00:44:44;;;;;;;5.07;1.42;;;5.00;99.90;;;;;;5070416;28;20077;-63
2022/02/15 00:47:11;;;;;;;9.55;1.45;;;5.00;99.90;;;;;;5052566;28;20146;-64
2022/02/15 00:49:38;;;;;;;7.72;1.55;;;5.00;99.90;;;;;;5070407;28;20491;-63
2022/02/15 00:52:05;;;;;;;3.78;1.27;;;4.90;99.90;;;;;;5070497;28;20108;-63
2022/02/15 00:54:32;;;;;;;6.68;1.45;;;4.90;99.90;;;;;;5071856;28;20044;-63
2022/02/15 00:56:59;;;;;;;4.82;1.40;;;4.90;99.90;;;;;;5061020;28;20085;-64
2022/02/15 00:59:26;;;;;;;4.35;1.17;;;4.80;99.90;;;;;;5075109;28;20080;-64
2022/02/15 01:01:53;;;;;;;5.53;1.10;;;4.80;99.90;;;;;;5069596;28;20274;-63
2022/02/15 01:04:19;;;;;;;4.10;1.13;;;4.80;99.90;;;;;;5070726;28;20078;-63
2022/02/15 01:06:46;;;;;;;3.90;1.15;;;4.70;99.90;;;;;;5070257;28;20092;-65
2022/02/15 01:09:13;;;;;;;7.10;1.23;;;4.70;99.90;;;;;;5070883;28;20503;-63
2022/02/15 01:11:40;;;;;;;7.30;2.13;;;4.70;99.90;;;;;;5069848;28;20136;-63
2022/02/15 01:14:07;;;;;;;7.68;1.35;;;4.80;99.90;;;;;;5070876;28;20080;-63
2022/02/15 01:16:34;;;;;;;10.98;2.40;;;4.80;99.90;;;;;;5070883;28;20044;-63
2022/02/15 01:19:01;;;;;;;5.10;1.02;;;4.70;99.90;;;;;;5068531;28;20072;-63
2022/02/15 01:21:27;;;;;;;8.98;2.10;;;4.70;99.90;;;;;;5070612;28;20495;-63
2022/02/15 01:23:54;;;;;;;5.55;1.73;;;4.70;99.90;;;;;;5070970;28;20052;-63
2022/02/15 01:26:21;;;;;;;10.27;1.20;;;4.70;99.90;;;;;;5068805;28;20131;-63
2022/02/15 01:28:48;;;;;;;4.43;1.20;;;4.70;99.90;;;;;;5069601;28;20419;-62
2022/02/15 01:31:15;;;;;;;6.88;2.22;;;4.60;99.90;;;;;;5070447;28;20040;-63
2022/02/15 01:33:41;;;;;;;8.60;1.90;;;4.60;99.90;;;;;;5070768;28;20072;-63
2022/02/15 01:36:08;;;;;;;7.35;1.38;;;4.60;99.90;;;;;;5070717;28;20136;-64
2022/02/15 01:38:35;;;;;;;4.78;0.77;;;4.50;99.90;;;;;;5069700;28;20568;-63
2022/02/15 01:41:04;;;;;;;9.93;1.17;;;4.50;99.90;;;;;;5070832;28;20505;-63
2022/02/15 01:43:31;;;;;;;4.35;1.23;;;4.50;99.90;;;;;;5069434;28;20482;-63
2022/02/15 01:45:57;;;;;;;6.78;1.20;;;4.40;99.90;;;;;;5071296;28;20079;-63
2022/02/15 01:48:24;;;;;;;6.13;1.40;;;4.40;99.90;;;;;;5070970;28;20072;-64
2022/02/15 01:50:51;;;;;;;7.57;1.10;;;4.40;99.90;;;;;;5053743;28;20052;-63
2022/02/15 01:53:18;;;;;;;7.40;1.38;;;4.40;99.90;;;;;;5065107;28;20044;-64
2022/02/15 01:55:44;;;;;;;6.25;1.30;;;4.40;99.90;;;;;;5071467;28;20079;-64
2022/02/15 01:58:11;;;;;;;6.20;1.48;;;4.40;99.90;;;;;;5071972;28;20094;-65
2022/02/15 02:00:38;;;;;;;10.43;1.80;;;4.30;99.90;;;;;;5073126;28;20052;-65
2022/02/15 02:03:05;;;;;;;4.95;1.10;;;4.30;99.90;;;;;;5073060;28;20406;-64
2022/02/15 02:05:50;;;;;;;5.65;1.67;;;4.30;99.90;;;;;;5072283;28;20049;-65
2022/02/15 02:08:26;;;;;;;5.72;1.17;;;4.30;99.90;;;;;;5071040;28;20052;-65
2022/02/15 02:10:54;;;;;;;9.20;1.23;;;4.30;99.90;;;;;;4722482;28;10000379;-64
2022/02/15 02:13:21;;;;;;;7.88;1.50;;;4.40;99.90;;;;;;5074634;28;20048;-65
2022/02/15 02:15:48;;;;;;;1.55;1.02;;;4.50;99.90;;;;;;5073868;28;20079;-64
2022/02/15 02:18:15;;;;;;;4.45;0.77;;;4.40;99.90;;;;;;5073555;28;20072;-64
2022/02/15 02:20:44;;;;;;;5.38;1.33;;;4.40;99.90;;;;;;5074044;28;20048;-64
2022/02/15 02:23:12;;;;;;;9.20;1.48;;;4.40;99.90;;;;;;5074881;28;20566;-66
2022/02/15 02:25:39;;;;;;;7.72;1.70;;;4.30;99.90;;;;;;5078302;28;20064;-64
2022/02/15 02:28:05;;;;;;;8.95;1.10;;;4.30;99.90;;;;;;5079254;28;20048;-64
2022/02/15 02:30:32;;;;;;;5.80;1.58;;;4.30;99.90;;;;;;5074558;28;20041;-64
2022/02/15 02:32:59;;;;;;;5.85;1.10;;;4.30;99.90;;;;;;5082088;28;20059;-64
2022/02/15 02:35:26;;;;;;;4.70;1.27;;;4.30;99.90;;;;;;5081898;28;20060;-65
2022/02/15 02:37:52;;;;;;;9.23;1.50;;;4.30;99.90;;;;;;5080974;28;20075;-64
2022/02/15 02:40:19;;;;;;;10.18;1.27;;;4.50;99.90;;;;;;5075122;28;20099;-64
2022/02/15 02:42:46;;;;;;;8.52;1.50;;;4.30;99.90;;;;;;5073780;28;20080;-64
2022/02/15 02:45:15;;;;;;;6.05;1.08;;;4.30;99.90;;;;;;5074452;28;20132;-64
2022/02/15 02:47:43;;;;;;;7.78;2.15;;;4.50;99.90;;;;;;5077254;28;20048;-66
2022/02/15 02:50:10;;;;;;;3.20;1.20;;;4.30;99.90;;;;;;5076487;28;20048;-64
2022/02/15 02:52:36;;;;;;;4.72;2.03;;;4.30;99.90;;;;;;5075014;28;20091;-65
2022/02/15 02:55:07;;;;;;;5.40;1.23;;;4.30;99.90;;;;;;5077071;28;20041;-64
2022/02/15 02:57:35;;;;;;;6.32;1.52;;;4.20;99.90;;;;;;5074065;28;20040;-63
2022/02/15 03:00:10;;;;;;;7.07;1.52;;;4.20;99.90;;;;;;5074858;28;20036;-64
2022/02/15 03:02:37;;;;;;;5.80;1.50;;;4.20;99.90;;;;;;5072962;28;20048;-64
2022/02/15 03:05:04;;;;;;;6.18;1.50;;;4.20;99.90;;;;;;5070655;28;20543;-64
2022/02/15 03:07:31;;;;;;;4.03;1.48;;;4.10;99.90;;;;;;5070016;28;20079;-63
2022/02/15 03:09:58;;;;;;;4.45;1.60;;;4.20;99.90;;;;;;5071575;28;20071;-63
2022/02/15 03:12:24;;;;;;;5.78;1.40;;;4.10;99.90;;;;;;5072168;28;20048;-63
2022/02/15 03:14:51;;;;;;;8.05;1.63;;;4.10;99.90;;;;;;5072579;28;20076;-64
2022/02/15 03:17:18;;;;;;;4.50;1.00;;;4.10;99.90;;;;;;5070543;28;20072;-63
2022/02/15 03:19:45;;;;;;;11.57;1.08;;;4.10;99.90;;;;;;5058417;28;20053;-63
2022/02/15 03:22:12;;;;;;;5.70;1.20;;;4.10;99.90;;;;;;5069933;28;20071;-63
2022/02/15 03:24:38;;;;;;;6.78;1.63;;;4.00;99.90;;;;;;5070237;28;20460;-63
2022/02/15 03:27:05;;;;;;;10.57;2.08;;;4.10;99.90;;;;;;5070507;28;20076;-64
2022/02/15 03:29:32;;;;;;;6.47;1.35;;;4.10;99.90;;;;;;5069344;28;20521;-63
2022/02/15 03:31:59;;;;;;;5.05;1.77;;;4.10;99.90;;;;;;5069250;28;20052;-64
2022/02/15 03:34:26;;;;;;;4.47;1.45;;;4.00;99.90;;;;;;5069305;28;20485;-63
2022/02/15 03:36:52;;;;;;;4.20;1.42;;;4.10;99.90;;;;;;5069875;28;20060;-63
2022/02/15 03:39:20;;;;;;;6.00;1.00;;;4.00;99.90;;;;;;5069453;28;20075;-63
2022/02/15 03:44:49;;;;;;;14.95;1.75;;;4.00;99.90;;;;;;4990793;28;20755;-63
2022/02/15 03:47:16;;;;;;;11.77;1.98;;;4.00;99.90;;;;;;5055988;28;20106;-63
2022/02/15 03:49:42;;;;;;;5.93;1.20;;;4.00;99.90;;;;;;5061076;28;20048;-64
2022/02/15 03:52:09;;;;;;;10.30;1.42;;;4.00;99.90;;;;;;5066049;28;20076;-64
2022/02/15 03:54:36;;;;;;;8.48;1.80;;;4.00;99.90;;;;;;5074357;28;20079;-63
2022/02/15 03:57:03;;;;;;;13.38;1.88;;;4.00;99.90;;;;;;5074317;28;20044;-63
2022/02/15 03:59:30;;;;;;;7.13;1.27;;;4.00;99.90;;;;;;5072905;28;20139;-63
2022/02/15 04:01:57;;;;;;;8.90;1.83;;;4.10;99.90;;;;;;5069995;28;20080;-63
2022/02/15 04:04:23;;;;;;;10.63;1.42;;;4.00;99.90;;;;;;5070966;28;20068;-63
2022/02/15 04:06:51;;;;;;;2.63;1.10;;;4.00;99.90;;;;;;5072327;28;20474;-63
2022/02/15 04:09:18;;;;;;;7.50;1.98;;;4.00;99.90;;;;;;5072462;28;20040;-63
2022/02/15 04:11:45;;;;;;;9.27;1.48;;;4.10;99.90;;;;;;5072084;28;20079;-64
2022/02/15 04:14:12;;;;;;;4.22;0.93;;;4.00;99.90;;;;;;5070706;28;20048;-63
2022/02/15 04:16:38;;;;;;;2.15;0.90;;;3.90;99.90;;;;;;5071054;28;20040;-62
2022/02/15 04:19:05;;;;;;;3.38;1.33;;;4.00;99.90;;;;;;5070610;28;20075;-63
2022/02/15 04:21:32;;;;;;;8.27;1.63;;;4.00;99.90;;;;;;5071057;28;20569;-63
2022/02/15 04:23:59;;;;;;;1.70;0.73;;;4.00;99.90;;;;;;5071898;28;20139;-63
2022/02/15 04:26:25;;;;;;;7.07;0.77;;;4.00;99.90;;;;;;5071763;28;20045;-63
2022/02/15 04:28:53;;;;;;;5.75;1.00;;;4.00;99.90;;;;;;5071561;28;20396;-62
2022/02/15 04:31:21;;;;;;;4.53;0.98;;;4.00;99.90;;;;;;5072135;28;20098;-63
2022/02/15 04:33:48;;;;;;;2.70;0.90;;;4.10;99.90;;;;;;5071830;28;20054;-64
2022/02/15 04:36:15;;;;;;;12.43;1.85;;;4.10;99.90;;;;;;5071892;28;20135;-64
2022/02/15 04:38:42;;;;;;;3.63;1.05;;;4.30;99.90;;;;;;5071701;28;20040;-63
2022/02/15 04:41:08;;;;;;;8.18;0.98;;;4.20;99.90;;;;;;5071252;28;20133;-64
2022/02/15 04:43:35;;;;;;;5.53;1.10;;;4.20;99.90;;;;;;5070524;28;20072;-64
2022/02/15 04:46:02;;;;;;;8.13;1.20;;;4.20;99.90;;;;;;5070821;28;20048;-64
2022/02/15 04:48:29;;;;;;;8.90;1.33;;;4.20;99.90;;;;;;5070844;28;20135;-62
2022/02/15 04:50:56;;;;;;;3.70;0.95;;;4.20;99.90;;;;;;5070729;28;20518;-64
2022/02/15 04:53:23;;;;;;;5.22;1.23;;;4.40;99.90;;;;;;5070011;28;20539;-64
2022/02/15 04:55:49;;;;;;;7.00;1.65;;;4.20;99.90;;;;;;5052766;28;20099;-64
2022/02/15 04:58:16;;;;;;;8.00;1.30;;;4.30;99.90;;;;;;5069909;28;20123;-64
2022/02/15 05:00:45;;;;;;;4.00;0.90;;;4.30;99.90;;;;;;5071506;28;20470;-64
2022/02/15 05:03:12;;;;;;;4.30;1.20;;;4.30;99.90;;;;;;5069728;28;20048;-64
2022/02/15 05:05:39;;;;;;;5.03;1.48;;;4.20;99.90;;;;;;5070343;28;20105;-64
2022/02/15 05:08:05;;;;;;;3.55;1.73;;;4.20;99.90;;;;;;5070150;28;20139;-65
2022/02/15 05:10:32;;;;;;;5.03;0.93;;;4.10;99.90;;;;;;5070683;28;20044;-64
2022/02/15 05:13:01;;;;;;;5.00;1.38;;;4.10;99.90;;;;;;5070645;28;20048;-64
2022/02/15 05:15:28;;;;;;;8.93;1.10;;;4.30;99.90;;;;;;5070955;28;20458;-64
2022/02/15 05:17:55;;;;;;;9.63;0.95;;;4.10;99.90;;;;;;5071236;28;20139;-64
2022/02/15 05:20:22;;;;;;;7.03;1.10;;;4.20;99.90;;;;;;5070787;28;20392;-64
2022/02/15 05:22:51;;;;;;;4.07;1.05;;;4.30;99.90;;;;;;5070689;28;20549;-64
2022/02/15 05:25:18;;;;;;;7.22;1.15;;;4.30;99.90;;;;;;5071689;28;20511;-64
2022/02/15 05:27:45;;;;;;;4.70;1.60;;;4.40;99.90;;;;;;5071638;28;20068;-65
2022/02/15 05:30:12;;;;;;;8.25;1.20;;;4.40;99.90;;;;;;5072437;28;20068;-65
2022/02/15 05:32:39;;;;;;;4.97;1.40;;;4.40;99.90;;;;;;5073289;28;20075;-65
2022/02/15 05:35:07;;;;;;;4.88;1.08;;;4.50;99.90;;;;;;5075568;28;20079;-64
2022/02/15 05:37:34;;;;;;;6.90;1.55;;;4.50;99.90;;;;;;5079227;28;20492;-64
2022/02/15 05:40:01;;;;;;;7.22;1.33;;;4.60;99.90;;;;;;5078161;28;20047;-64
2022/02/15 05:42:27;;;;;;;7.13;0.77;;;4.60;99.90;;;;;;5073036;28;20090;-65
2022/02/15 05:44:54;;;;;;;8.65;1.42;;;4.70;99.90;;;;;;5070455;28;20082;-65
2022/02/15 05:47:21;;;;;;;8.90;2.22;;;4.70;99.90;;;;;;5070570;28;20561;-65
2022/02/15 05:52:37;;;;;;;14.75;1.98;;;4.80;99.90;;;;;;5070602;28;20637;-65
2022/02/15 05:55:05;;;;;;;4.72;1.77;;;4.80;99.90;;;;;;5070338;28;20470;-65
2022/02/15 05:57:32;;;;;;;13.25;2.65;;;4.80;99.90;;;;;;5059378;28;20520;-64
2022/02/15 05:59:58;;;;;;;8.05;1.25;;;4.90;99.90;;;;;;5068948;28;20102;-64
2022/02/15 06:02:25;;;;;;;7.07;3.03;;;4.90;99.90;;;;;;5069932;28;20522;-63
2022/02/15 06:04:52;;;;;;;4.88;1.23;;;4.90;99.90;;;;;;5070533;28;20072;-63
2022/02/15 06:07:19;;;;;;;8.10;3.15;;;5.00;99.90;;;;;;5069413;28;20052;-63
2022/02/15 06:09:46;;;;;;;8.43;1.90;;;5.00;99.90;;;;;;5069551;28;20080;-64
2022/02/15 06:12:13;;;;;;;16.70;2.50;;;5.00;99.90;;;;;;5068536;28;20060;-62
2022/02/15 06:14:40;;;;;;;7.60;1.42;;;5.00;99.90;;;;;;5069022;28;20049;-63
2022/02/15 06:17:06;;;;;;;9.10;3.67;;;5.00;99.90;;;;;;5068352;28;20084;-62
2022/02/15 06:19:33;;;;;;;11.00;1.73;;;4.90;99.90;;;;;;5061685;28;20135;-62
2022/02/15 06:22:00;;;;;;;7.97;1.45;;;4.90;99.90;;;;;;5060147;28;20040;-62
2022/02/15 06:24:27;;;;;;;6.70;1.42;;;4.90;99.90;;;;;;5067176;28;20562;-63
2022/02/15 06:27:02;;;;;;;6.97;1.52;;;4.90;99.90;;;;;;5066309;28;20048;-63
2022/02/15 06:29:32;;;;;;;4.22;1.48;;;4.90;99.90;;;;;;5068395;28;20083;-62
2022/02/15 06:31:59;;;;;;;10.13;1.38;;;5.10;99.90;;;;;;5068392;28;20086;-62
2022/02/15 06:34:26;;;;;;;10.93;1.98;;;5.00;99.90;;;;;;5068448;28;20072;-62
2022/02/15 06:36:53;;;;;;;8.90;1.40;;;5.00;99.90;;;;;;5067409;28;20045;-63
2022/02/15 06:39:20;;;;;;;12.65;2.90;;;5.00;99.90;;;;;;5068205;28;20052;-63
2022/02/15 06:41:47;;;;;;;10.00;1.80;;;5.10;99.90;;;;;;5067177;28;20094;-62
2022/02/15 06:44:14;;;;;;;21.15;2.78;;;5.10;99.90;;;;;;5068338;28;20090;-63
2022/02/15 06:46:41;;;;;;;7.82;1.88;;;5.10;99.90;;;;;;5067310;28;20473;-63
2022/02/15 06:49:07;;;;;;;11.18;2.25;;;5.20;99.90;;;;;;5063306;28;20044;-63
2022/02/15 06:51:34;;;;;;;11.75;1.77;;;5.20;99.90;;;;;;5068628;28;20044;-63
2022/02/15 06:54:01;;;;;;;5.05;1.30;;;5.30;99.90;;;;;;5063756;28;20557;-63
2022/02/15 06:56:28;;;;;;;6.43;1.92;;;5.30;99.90;;;;;;5048358;28;20069;-64
2022/02/15 06:58:55;;;;;;;4.68;1.45;;;5.30;99.90;;;;;;5063814;28;20072;-63
2022/02/15 07:01:22;;;;;;;13.30;1.63;;;5.30;99.90;;;;;;5068318;28;20120;-62
2022/02/15 07:03:49;;;;;;;10.52;1.95;;;5.40;99.90;;;;;;5068317;28;20057;-62
2022/02/15 07:06:18;;;;;;;12.45;1.80;;;5.40;99.90;;;;;;5066806;28;20056;-66
2022/02/15 07:08:45;;;;;;;14.05;1.30;;;5.40;99.90;;;;;;5068270;28;20076;-62
2022/02/15 07:11:12;;;;;;;10.23;1.75;;;5.40;99.90;;;;;;5049946;28;20072;-63
2022/02/15 07:13:39;;;;;;;10.27;2.55;;;5.40;99.90;;;;;;5068663;28;20044;-63
2022/02/15 07:16:06;;;;;;;7.90;1.63;;;5.40;99.90;;;;;;5068493;28;20080;-63
2022/02/15 07:18:33;;;;;;;6.05;1.38;;;5.40;99.90;;;;;;5069461;28;20384;-63
2022/02/15 07:21:00;;;;;;;17.40;1.70;;;5.50;99.90;;;;;;5072216;28;20106;-65
2022/02/15 07:23:26;;;;;;;17.30;2.33;;;5.50;99.90;;;;;;5070722;28;20044;-64
2022/02/15 07:25:53;;;;;;;9.15;2.40;;;5.50;99.90;;;;;;5071630;28;20059;-64
2022/02/15 07:28:20;;;;;;;10.80;1.92;;;5.50;99.90;;;;;;5071289;28;20295;-63
2022/02/15 07:30:47;;;;;;;10.23;3.10;;;5.60;99.90;;;;;;5071796;28;20273;-63
2022/02/15 07:33:14;;;;;;;6.18;1.30;;;5.60;99.90;;;;;;5069995;28;20044;-64
2022/02/15 07:35:40;;;;;;;10.93;1.50;;;5.70;99.90;;;;;;5068038;28;20045;-64
2022/02/15 07:38:07;;;;;;;8.18;2.13;;;5.70;99.90;;;;;;5071921;28;20044;-64
2022/02/15 07:40:34;;;;;;;9.52;1.65;;;5.80;99.90;;;;;;5071931;28;20076;-64
2022/02/15 07:43:01;;;;;;;12.63;1.77;;;5.80;99.90;;;;;;5072106;28;20048;-64
2022/02/15 07:45:30;;;;;;;11.75;1.95;;;5.90;99.90;;;;;;5071547;28;20048;-63
2022/02/15 07:47:57;;;;;;;16.38;2.05;;;5.90;99.90;;;;;;5070028;28;20044;-64
2022/02/15 07:50:24;;;;;;;16.00;2.80;;;6.30;99.90;;;;;;5063242;28;20493;-63
2022/02/15 07:52:50;;;;;;;8.50;2.22;;;6.00;99.90;;;;;;5071844;28;20041;-64
2022/02/15 07:55:18;;;;;;;17.15;3.28;;;6.00;99.90;;;;;;5066779;28;20041;-63
2022/02/15 07:57:45;;;;;;;16.38;2.25;;;6.10;99.90;;;;;;5064347;28;20495;-64
2022/02/15 08:00:18;;;;;;;13.25;2.13;;;6.10;99.90;;;;;;5068402;28;20093;-66
2022/02/15 08:02:48;;;;;;;16.95;3.88;;;6.20;99.90;;;;;;5067834;28;20055;-64
2022/02/15 08:05:15;;;;;;;19.73;2.50;;;6.20;99.90;;;;;;5067495;28;20083;-64
2022/02/15 08:07:56;;;;;;;15.32;2.30;;;6.30;99.90;;;;;;5069845;28;20084;-63
2022/02/15 08:10:23;;;;;;;11.10;2.13;;;6.40;99.90;;;;;;5068503;28;20072;-62
2022/02/15 08:12:57;;;;;;;14.07;2.00;;;6.50;99.90;;;;;;5072456;28;20044;-63
2022/02/15 08:15:28;;;;;;;16.60;2.08;;;6.60;99.90;;;;;;5071413;28;20079;-63
2022/02/15 08:17:55;;;;;;;19.60;2.10;;;6.70;99.90;;;;;;5071695;28;20072;-63
2022/02/15 08:20:32;;;;;;;7.32;3.55;;;6.70;99.90;;;;;;4762626;28;10001416;-63
2022/02/15 08:22:59;;;;;;;10.02;1.92;;;6.70;99.90;;;;;;5068436;28;20263;-63
2022/02/15 08:25:28;;;;;;;20.30;2.58;;;6.80;99.90;;;;;;5068036;28;20616;-63
2022/02/15 08:27:55;;;;;;;12.70;1.70;;;6.80;99.90;;;;;;5068632;28;20052;-64
2022/02/15 08:30:22;;;;;;;20.52;2.70;;;6.80;99.90;;;;;;5067508;28;20045;-64
2022/02/15 08:32:49;;;;;;;10.77;2.08;;;6.80;99.90;;;;;;5064387;28;20100;-63
2022/02/15 08:35:17;;;;;;;14.02;2.15;;;6.80;99.90;;;;;;5069593;28;20139;-64
2022/02/15 08:37:45;;;;;;;15.38;3.17;;;6.80;99.90;;;;;;5073246;28;20045;-63
2022/02/15 08:40:12;;;;;;;15.20;2.88;;;6.90;99.90;;;;;;5072456;28;20109;-63
2022/02/15 08:42:40;;;;;;;13.88;2.60;;;6.90;99.90;;;;;;5069295;28;20047;-63
2022/02/15 08:45:08;;;;;;;18.33;3.08;;;7.10;99.90;;;;;;5070924;28;20048;-65
2022/02/15 08:47:35;;;;;;;19.27;3.00;;;7.10;99.90;;;;;;5069934;28;20460;-64
2022/02/15 08:50:02;;;;;;;16.73;3.17;;;7.10;99.90;;;;;;5066488;28;20113;-64
2022/02/15 08:52:30;;;;;;;10.73;2.88;;;7.20;99.90;;;;;;5067055;28;20064;-63
2022/02/15 08:54:56;;;;;;;15.85;2.13;;;7.30;99.90;;;;;;5069563;28;20472;-63
2022/02/15 08:57:24;;;;;;;17.75;3.22;;;7.40;99.90;;;;;;5073956;28;20462;-63
2022/02/15 08:59:53;;;;;;;12.95;2.35;;;7.50;99.90;;;;;;5077964;28;20074;-63
2022/02/15 09:02:21;;;;;;;14.98;2.00;;;7.60;99.90;;;;;;5073826;28;20047;-63
2022/02/15 09:04:47;;;;;;;16.80;2.20;;;7.60;99.90;;;;;;5069651;28;20056;-64
2022/02/15 09:07:14;;;;;;;18.38;2.65;;;7.70;99.90;;;;;;5068843;28;20491;-63
2022/02/15 09:09:41;;;;;;;14.18;2.10;;;7.80;99.90;;;;;;5068763;28;20400;-63
2022/02/15 09:12:08;;;;;;;11.07;2.05;;;7.80;99.90;;;;;;5068479;28;20045;-63
2022/02/15 09:14:35;;;;;;;11.05;2.30;;;7.90;99.90;;;;;;5068774;28;20498;-64
2022/02/15 09:17:02;;;;;;;19.65;3.42;;;7.90;99.90;;;;;;5070114;28;20500;-64
2022/02/15 09:19:29;;;;;;;16.27;3.15;;;8.00;99.90;;;;;;5065269;28;20098;-63
2022/02/15 09:21:56;;;;;;;14.07;2.05;;;8.10;99.90;;;;;;5068321;28;20110;-63
2022/02/15 09:24:23;;;;;;;13.07;2.40;;;8.10;99.90;;;;;;5069250;28;20091;-64
2022/02/15 09:26:49;;;;;;;14.05;3.22;;;8.20;99.90;;;;;;5072927;28;20049;-63
2022/02/15 09:29:17;;;;;;;13.07;1.80;;;8.30;99.90;;;;;;5070190;28;20048;-63
2022/02/15 09:31:44;;;;;;;16.20;3.92;;;8.30;99.90;;;;;;5067698;28;20561;-63
2022/02/15 09:34:11;;;;;;;16.88;2.58;;;8.40;99.90;;;;;;5070095;28;20523;-64
2022/02/15 09:36:38;;;;;;;15.52;3.03;;;8.40;99.90;;;;;;5072320;28;20052;-63
2022/02/15 09:39:05;;;;;;;16.73;2.78;;;8.50;99.90;;;;;;5071498;28;20052;-64
2022/02/15 09:41:34;;;;;;;15.18;3.35;;;8.60;99.90;;;;;;5073957;28;20066;-63
2022/02/15 09:44:05;;;;;;;20.90;3.95;;;8.60;99.90;;;;;;5070888;28;20052;-63
2022/02/15 09:46:33;;;;;;;23.35;3.42;;;8.70;99.90;;;;;;5072836;28;20059;-63
2022/02/15 09:49:01;;;;;;;15.85;2.50;;;8.80;99.90;;;;;;5070978;28;20118;-65
2022/02/15 09:51:28;;;;;;;21.90;2.45;;;8.90;99.90;;;;;;5072358;28;20309;-63
2022/02/15 09:53:56;;;;;;;14.75;1.90;;;8.90;99.90;;;;;;5067074;28;20076;-64
2022/02/15 09:56:22;;;;;;;15.75;2.60;;;9.00;99.90;;;;;;5062405;28;20068;-63
2022/02/15 09:58:49;;;;;;;23.67;4.15;;;9.00;99.90;;;;;;5067635;28;20094;-64
2022/02/15 10:01:16;;;;;;;13.07;1.92;;;9.10;99.90;;;;;;5067103;28;20052;-63
2022/02/15 10:03:48;;;;;;;18.65;2.83;;;9.20;99.90;;;;;;5067844;28;20166;-63
2022/02/15 10:06:14;;;;;;;19.77;3.75;;;9.20;99.90;;;;;;5067482;28;20052;-64
2022/02/15 10:08:41;;;;;;;10.50;3.67;;;9.30;99.90;;;;;;5066547;28;20114;-64
2022/02/15 10:11:13;;;;;;;22.88;4.40;;;9.30;99.90;;;;;;5067149;28;20090;-68
2022/02/15 10:13:44;;;;;;;13.25;2.50;;;9.40;99.90;;;;;;5066926;28;20088;-63
2022/02/15 10:16:11;;;;;;;20.63;4.00;;;9.40;99.90;;;;;;5067325;28;20068;-63
2022/02/15 10:18:38;;;;;;;13.23;3.30;;;9.40;99.90;;;;;;5067585;28;20458;-63
2022/02/15 10:21:05;;;;;;;14.60;2.83;;;9.50;99.90;;;;;;5063709;28;20079;-65
2022/02/15 10:23:33;;;;;;;9.63;1.92;;;9.50;99.90;;;;;;5065356;28;20127;-64
2022/02/15 10:26:01;;;;;;;20.58;3.22;;;9.60;99.90;;;;;;5064345;28;20056;-63
2022/02/15 10:28:29;;;;;;;18.88;4.80;;;9.60;99.90;;;;;;5066350;28;20090;-65
2022/02/15 10:30:57;;;;;;;16.65;2.58;;;9.60;99.90;;;;;;5064269;28;20078;-64
2022/02/15 10:33:34;;;;;;;12.52;3.63;;;9.70;99.90;;;;;;5066249;28;20440;-64
2022/02/15 10:36:01;;;;;;;22.08;3.17;;;9.70;99.90;;;;;;5065904;28;20079;-64
2022/02/15 10:38:36;;;;;;;19.10;2.53;;;9.70;99.90;;;;;;5066057;28;20091;-64
2022/02/15 10:41:14;;;;;;;16.90;3.08;;;9.70;99.90;;;;;;5065128;28;20080;-64
2022/02/15 10:43:51;;;;;;;15.38;2.90;;;9.80;99.90;;;;;;5066460;28;20131;-64
2022/02/15 10:46:39;;;;;;;21.42;3.53;;;9.70;99.90;;;;;;5067458;28;20048;-64
2022/02/15 10:49:07;;;;;;;15.18;2.50;;;9.70;99.90;;;;;;5044951;28;20102;-63
2022/02/15 10:51:34;;;;;;;21.05;2.90;;;9.70;99.90;;;;;;5062570;28;20048;-64
2022/02/15 10:54:01;;;;;;;18.38;3.30;;;9.70;99.90;;;;;;5064401;28;20412;-64
2022/02/15 10:56:46;;;;;;;14.73;3.35;;;9.70;99.90;;;;;;5066652;28;20097;-64
2022/02/15 10:59:13;;;;;;;18.75;5.03;;;9.60;99.90;;;;;;5045907;28;20472;-64
2022/02/15 11:01:41;;;;;;;18.52;3.33;;;9.60;99.90;;;;;;5059541;28;20135;-64
2022/02/15 11:04:07;;;;;;;18.13;2.67;;;9.60;99.90;;;;;;5065817;28;20483;-64
2022/02/15 11:06:34;;;;;;;22.33;3.67;;;9.60;99.90;;;;;;5065313;28;20572;-65
2022/02/15 11:09:04;;;;;;;17.52;3.25;;;9.50;99.90;;;;;;5064590;28;20457;-64
2022/02/15 11:12:20;;;;;;;23.35;4.93;;;9.50;99.90;;;;;;5047971;28;20513;-63
2022/02/15 11:14:58;;;;;;;12.43;1.98;;;9.50;99.90;;;;;;5046117;28;20424;-64
2022/02/15 11:17:26;;;;;;;14.60;2.35;;;9.50;99.90;;;;;;5066139;28;20044;-62
2022/02/15 11:20:05;;;;;;;17.30;2.92;;;9.40;99.90;;;;;;5032756;28;20094;-63
2022/02/15 11:22:52;;;;;;;18.70;3.95;;;9.40;99.90;;;;;;5062083;28;20091;-63
2022/02/15 11:25:33;;;;;;;10.70;2.65;;;9.40;99.90;;;;;;5063868;28;20052;-64
2022/02/15 11:28:11;;;;;;;24.90;3.95;;;9.30;99.90;;;;;;5065554;28;20067;-65
2022/02/15 11:30:51;;;;;;;14.75;2.78;;;9.30;99.90;;;;;;5065670;28;20136;-63
2022/02/15 11:33:43;;;;;;;18.42;2.58;;;9.30;99.90;;;;;;5063404;28;20397;-64
2022/02/15 11:36:14;;;;;;;15.48;3.03;;;9.30;99.90;;;;;;5053503;28;20041;-64
2022/02/15 11:38:54;;;;;;;14.63;2.33;;;9.20;99.90;;;;;;5066616;28;20506;-63
2022/02/15 11:41:21;;;;;;;20.90;4.68;;;9.20;99.90;;;;;;5067402;28;20510;-63
2022/02/15 11:44:01;;;;;;;22.02;3.58;;;9.20;99.90;;;;;;5071030;28;20068;-64
2022/02/15 11:46:30;;;;;;;13.68;2.15;;;9.30;99.90;;;;;;5066763;28;20041;-64
2022/02/15 11:49:08;;;;;;;19.10;2.83;;;9.20;99.90;;;;;;5063600;28;20104;-64
2022/02/15 11:51:34;;;;;;;13.55;4.35;;;9.20;99.90;;;;;;5047819;28;20532;-64
2022/02/15 11:54:01;;;;;;;22.27;2.92;;;9.20;99.90;;;;;;5063712;28;20048;-64
2022/02/15 11:56:29;;;;;;;15.05;4.38;;;9.20;99.90;;;;;;5066661;28;20109;-64
2022/02/15 11:58:58;;;;;;;12.10;2.53;;;9.20;99.90;;;;;;5050316;28;20055;-64
2022/02/15 12:01:26;;;;;;;12.50;2.47;;;9.20;99.90;;;;;;5069636;28;20114;-63
2022/02/15 12:03:59;;;;;;;14.95;2.05;;;9.20;99.90;;;;;;5067938;28;20506;-64
2022/02/15 12:06:39;;;;;;;12.63;2.47;;;9.20;99.90;;;;;;5055272;28;20052;-64
2022/02/15 12:09:07;;;;;;;15.70;1.60;;;9.30;99.90;;;;;;5070447;28;20126;-64
2022/02/15 12:11:39;;;;;;;18.33;2.45;;;9.30;99.90;;;;;;5070418;28;20047;-64
2022/02/15 12:14:13;;;;;;;16.15;3.95;;;9.20;99.90;;;;;;5070568;28;20118;-64
2022/02/15 12:16:50;;;;;;;20.77;3.45;;;9.20;99.90;;;;;;5072756;28;20048;-64
2022/02/15 12:19:22;;;;;;;12.32;1.90;;;9.20;99.90;;;;;;5072170;28;20072;-64
2022/02/15 12:21:50;;;;;;;16.30;2.30;;;9.20;99.90;;;;;;5073543;28;20384;-63
2022/02/15 12:24:17;;;;;;;12.15;2.53;;;9.20;99.90;;;;;;5071790;28;20040;-65
2022/02/15 12:26:44;;;;;;;14.65;2.45;;;9.20;99.90;;;;;;5069227;28;20053;-62
2022/02/15 12:29:12;;;;;;;13.07;2.25;;;9.20;99.90;;;;;;5071323;28;20052;-63
2022/02/15 12:31:39;;;;;;;10.68;2.00;;;9.20;99.90;;;;;;5055171;28;20083;-64
2022/02/15 12:34:07;;;;;;;10.85;2.65;;;9.20;99.90;;;;;;5070848;28;20044;-64
2022/02/15 12:36:34;;;;;;;15.25;1.83;;;9.20;99.90;;;;;;5069722;28;20048;-64
2022/02/15 12:39:06;;;;;;;12.10;2.33;;;9.20;99.90;;;;;;4830270;28;10000977;-64
2022/02/15 12:41:37;;;;;;;13.05;2.58;;;9.20;99.90;;;;;;5068109;28;20291;-64
2022/02/15 12:44:05;;;;;;;11.93;2.75;;;9.20;99.90;;;;;;5046804;28;20118;-64
2022/02/15 12:46:33;;;;;;;13.48;4.13;;;9.20;99.90;;;;;;5066234;28;20150;-63
2022/02/15 12:49:01;;;;;;;15.20;2.80;;;9.20;99.90;;;;;;5065703;28;20094;-64
2022/02/15 12:51:33;;;;;;;12.43;2.20;;;9.20;99.90;;;;;;5065316;28;20040;-63
2022/02/15 12:54:00;;;;;;;9.90;1.85;;;9.10;99.90;;;;;;5065770;28;20094;-64
2022/02/15 12:56:29;;;;;;;10.30;1.63;;;9.10;99.90;;;;;;5068122;28;20099;-63
2022/02/15 12:59:02;;;;;;;9.45;1.85;;;9.10;99.90;;;;;;5069418;28;20182;-64
2022/02/15 13:01:29;;;;;;;9.57;1.67;;;9.10;99.90;;;;;;5068385;28;20097;-65